Time;durP1;ratioP1;P1;durP2;ratioP2;P2;SDS_P1;SDS_P2;PMS_P1;PMS_P2;Temp;Humidity;BMP_temperature;BMP_pressure;BME280_temperature;BME280_humidity;BME280_pressure;Samples;Min_cycle;Max_cycle;Signal;HPM_P1;HPM_P2
2023/11/15 00:00:07;;;;;;;1.60;0.80;;;15.20;99.90;;;;;;5011834;28;20105;-45
2023/11/15 00:02:36;;;;;;;2.45;1.15;;;15.10;99.90;;;;;;5011441;28;20113;-44
2023/11/15 00:05:03;;;;;;;1.08;0.60;;;15.10;99.90;;;;;;5011219;28;20030;-44
2023/11/15 00:07:30;;;;;;;0.70;0.50;;;15.10;99.90;;;;;;5011176;28;20087;-44
2023/11/15 00:09:58;;;;;;;2.15;0.80;;;15.10;99.90;;;;;;5011521;28;20100;-44
2023/11/15 00:12:24;;;;;;;1.02;0.73;;;15.10;99.90;;;;;;5010748;28;20057;-46
2023/11/15 00:14:51;;;;;;;2.53;0.82;;;15.10;99.90;;;;;;5012466;28;20029;-45
2023/11/15 00:17:17;;;;;;;2.40;1.13;;;15.10;99.90;;;;;;5012088;28;20022;-44
2023/11/15 00:19:45;;;;;;;1.90;0.70;;;15.10;99.90;;;;;;5011309;28;20411;-44
2023/11/15 00:22:17;;;;;;;2.85;0.80;;;15.10;99.90;;;;;;5011431;28;20102;-45
2023/11/15 00:24:43;;;;;;;1.55;0.90;;;15.10;99.90;;;;;;5012167;28;20041;-46
2023/11/15 00:27:11;;;;;;;1.33;0.70;;;15.10;99.90;;;;;;5011180;28;20037;-43
2023/11/15 00:29:37;;;;;;;2.38;0.93;;;15.10;99.90;;;;;;5011762;28;20149;-46
2023/11/15 00:32:04;;;;;;;1.50;0.90;;;15.10;99.90;;;;;;5012185;28;20080;-45
2023/11/15 00:34:30;;;;;;;1.75;0.70;;;15.10;99.90;;;;;;5011843;28;20044;-44
2023/11/15 00:36:56;;;;;;;1.75;0.85;;;15.10;99.90;;;;;;5012281;28;20025;-43
2023/11/15 00:39:22;;;;;;;2.30;1.00;;;15.10;99.90;;;;;;5012054;28;20388;-45
2023/11/15 00:41:47;;;;;;;2.58;0.98;;;15.00;99.90;;;;;;5015840;28;20439;-45
2023/11/15 00:44:17;;;;;;;2.05;0.88;;;15.10;99.90;;;;;;5014652;28;20022;-43
2023/11/15 00:46:44;;;;;;;1.60;0.80;;;15.10;99.90;;;;;;5014562;28;20022;-41
2023/11/15 00:49:10;;;;;;;1.90;0.80;;;15.00;99.90;;;;;;5014424;28;20030;-44
2023/11/15 00:51:36;;;;;;;2.67;1.00;;;15.00;99.90;;;;;;5015056;28;20088;-44
2023/11/15 00:54:03;;;;;;;2.10;0.70;;;15.00;99.90;;;;;;5015607;28;20037;-45
2023/11/15 00:56:29;;;;;;;2.05;0.82;;;15.00;99.90;;;;;;5014807;28;20397;-45
2023/11/15 00:58:56;;;;;;;2.65;0.90;;;15.00;99.90;;;;;;5014265;28;20022;-44
2023/11/15 01:01:25;;;;;;;1.55;0.95;;;15.00;99.90;;;;;;5014266;28;20024;-45
2023/11/15 01:03:58;;;;;;;2.95;0.95;;;15.00;99.90;;;;;;5014504;28;20111;-45
2023/11/15 01:06:24;;;;;;;1.85;1.08;;;15.00;99.90;;;;;;5015421;28;20025;-43
2023/11/15 01:08:51;;;;;;;1.45;0.70;;;15.00;99.90;;;;;;5014542;28;20081;-45
2023/11/15 01:11:17;;;;;;;1.85;0.70;;;15.00;99.90;;;;;;5014669;28;20034;-45
2023/11/15 01:13:44;;;;;;;1.52;0.70;;;15.00;99.90;;;;;;5015168;28;20399;-46
2023/11/15 01:16:10;;;;;;;1.35;0.70;;;15.00;99.90;;;;;;5013969;28;20026;-44
2023/11/15 01:18:36;;;;;;;1.48;0.65;;;15.00;99.90;;;;;;5014610;28;20041;-46
2023/11/15 01:21:02;;;;;;;2.10;0.82;;;15.00;99.90;;;;;;5014566;28;20578;-44
2023/11/15 01:23:28;;;;;;;1.35;0.77;;;15.00;99.90;;;;;;5014066;28;20096;-42
2023/11/15 01:25:55;;;;;;;1.20;0.60;;;15.00;99.90;;;;;;5013927;28;20025;-44
2023/11/15 01:28:22;;;;;;;1.50;0.60;;;15.00;99.90;;;;;;5013883;28;20061;-45
2023/11/15 01:30:48;;;;;;;2.42;0.90;;;15.00;99.90;;;;;;5013780;28;20490;-44
2023/11/15 01:33:14;;;;;;;2.55;1.05;;;15.00;99.90;;;;;;5013877;28;20026;-44
2023/11/15 01:35:39;;;;;;;1.10;0.68;;;15.00;99.90;;;;;;5014310;28;20026;-44
2023/11/15 01:38:05;;;;;;;1.60;0.55;;;15.00;99.90;;;;;;5013415;28;20076;-45
2023/11/15 01:40:34;;;;;;;1.60;0.80;;;15.00;99.90;;;;;;5013644;28;20105;-44
2023/11/15 01:43:00;;;;;;;2.10;0.70;;;15.00;99.90;;;;;;5014389;28;20406;-44
2023/11/15 01:45:27;;;;;;;2.03;0.60;;;15.00;99.90;;;;;;5014147;28;20022;-45
2023/11/15 01:47:54;;;;;;;1.17;0.70;;;14.90;99.90;;;;;;5013343;28;20038;-44
2023/11/15 01:50:21;;;;;;;1.35;0.63;;;14.90;99.90;;;;;;5013535;28;20058;-44
2023/11/15 01:52:47;;;;;;;1.88;0.80;;;14.90;99.90;;;;;;5013095;28;20033;-45
2023/11/15 01:55:19;;;;;;;1.10;0.57;;;14.90;99.90;;;;;;5013484;28;20026;-46
2023/11/15 01:57:46;;;;;;;1.92;0.70;;;14.90;99.90;;;;;;5013002;28;20483;-44
2023/11/15 02:00:14;;;;;;;1.00;0.57;;;14.90;99.90;;;;;;5013323;28;20097;-45
2023/11/15 02:02:41;;;;;;;1.55;0.68;;;14.90;99.90;;;;;;5013594;28;20050;-43
2023/11/15 02:05:09;;;;;;;1.08;0.50;;;14.90;99.90;;;;;;5014661;28;20065;-45
2023/11/15 02:07:37;;;;;;;2.42;0.40;;;14.90;99.90;;;;;;5013027;28;20080;-46
2023/11/15 02:10:05;;;;;;;1.67;0.60;;;14.90;99.90;;;;;;5013538;28;20106;-45
2023/11/15 02:12:31;;;;;;;1.67;0.63;;;14.90;99.90;;;;;;5013087;28;20084;-44
2023/11/15 02:14:58;;;;;;;1.35;0.70;;;14.90;99.90;;;;;;5013538;28;20418;-46
2023/11/15 02:17:24;;;;;;;3.03;0.70;;;14.90;99.90;;;;;;5013157;28;20052;-44
2023/11/15 02:19:50;;;;;;;1.08;0.50;;;14.90;99.90;;;;;;5013045;28;20030;-43
2023/11/15 02:22:16;;;;;;;1.48;0.60;;;14.90;99.90;;;;;;5013535;28;20106;-44
2023/11/15 02:24:43;;;;;;;1.25;0.55;;;14.90;99.90;;;;;;5013017;28;20576;-44
2023/11/15 02:27:08;;;;;;;0.55;0.40;;;14.90;99.90;;;;;;5012684;28;20029;-45
2023/11/15 02:29:34;;;;;;;1.67;0.60;;;14.90;99.90;;;;;;5013647;28;20033;-44
2023/11/15 02:32:00;;;;;;;1.23;0.43;;;14.90;99.90;;;;;;5013524;28;20101;-45
2023/11/15 02:34:25;;;;;;;1.35;0.50;;;14.90;99.90;;;;;;5012989;28;20030;-45
2023/11/15 02:36:51;;;;;;;1.00;0.65;;;14.90;99.90;;;;;;5013276;28;20053;-44
2023/11/15 02:39:17;;;;;;;1.27;0.50;;;14.80;99.90;;;;;;5012614;28;20040;-43
2023/11/15 02:41:43;;;;;;;0.80;0.30;;;14.90;99.90;;;;;;5013102;28;20060;-44
2023/11/15 02:44:10;;;;;;;0.88;0.55;;;14.90;99.90;;;;;;5013530;28;20076;-44
2023/11/15 02:46:36;;;;;;;1.58;0.57;;;14.90;99.90;;;;;;5012388;28;20112;-44
2023/11/15 02:49:02;;;;;;;2.33;0.60;;;14.90;99.90;;;;;;5012306;28;20104;-43
2023/11/15 02:51:28;;;;;;;1.02;0.60;;;14.90;99.90;;;;;;5012369;28;20030;-43
2023/11/15 02:53:54;;;;;;;2.78;0.60;;;14.90;99.90;;;;;;5012116;28;20084;-43
2023/11/15 02:56:20;;;;;;;0.98;0.52;;;14.90;99.90;;;;;;5012225;28;20080;-46
2023/11/15 02:58:46;;;;;;;3.75;0.60;;;14.90;99.90;;;;;;5012889;28;20034;-46
2023/11/15 03:01:12;;;;;;;1.92;0.68;;;14.90;99.90;;;;;;5012224;28;20021;-43
2023/11/15 03:03:42;;;;;;;1.95;0.63;;;14.90;99.90;;;;;;5012761;28;20022;-45
2023/11/15 03:06:07;;;;;;;1.70;0.55;;;14.90;99.90;;;;;;5012025;28;20022;-44
2023/11/15 03:08:33;;;;;;;1.75;0.40;;;14.90;99.90;;;;;;5011770;28;20026;-44
2023/11/15 03:10:59;;;;;;;1.30;0.50;;;14.80;99.90;;;;;;5012034;28;20029;-46
2023/11/15 03:13:25;;;;;;;1.25;0.60;;;14.80;99.90;;;;;;5011967;28;20149;-45
2023/11/15 03:15:51;;;;;;;1.83;0.50;;;14.90;99.90;;;;;;5011829;28;20026;-43
2023/11/15 03:18:17;;;;;;;1.58;0.47;;;14.80;99.90;;;;;;5012397;28;20464;-45
2023/11/15 03:20:43;;;;;;;1.00;0.50;;;14.80;99.90;;;;;;5012033;28;20049;-46
2023/11/15 03:23:11;;;;;;;1.38;0.47;;;14.80;99.90;;;;;;5012186;28;20022;-45
2023/11/15 03:25:38;;;;;;;0.93;0.40;;;14.80;99.90;;;;;;5011798;28;20280;-43
2023/11/15 03:28:03;;;;;;;1.15;0.40;;;14.80;99.90;;;;;;5014349;28;20041;-45
2023/11/15 03:30:31;;;;;;;2.45;0.45;;;14.80;99.90;;;;;;5012158;28;20026;-43
2023/11/15 03:32:57;;;;;;;0.90;0.50;;;14.80;99.90;;;;;;5012093;28;20033;-44
2023/11/15 03:35:23;;;;;;;1.92;0.50;;;14.80;99.90;;;;;;5011952;28;20112;-44
2023/11/15 03:37:49;;;;;;;1.63;0.40;;;14.80;99.90;;;;;;5013246;28;20026;-43
2023/11/15 03:40:15;;;;;;;1.15;0.50;;;14.80;99.90;;;;;;5011969;28;20026;-43
2023/11/15 03:42:41;;;;;;;0.93;0.50;;;14.80;99.90;;;;;;5012330;28;20097;-44
2023/11/15 03:45:09;;;;;;;1.30;0.55;;;14.80;99.90;;;;;;5013163;28;20033;-44
2023/11/15 03:47:36;;;;;;;0.95;0.40;;;14.80;99.90;;;;;;5011538;28;20051;-44
2023/11/15 03:50:04;;;;;;;2.63;0.60;;;14.80;99.90;;;;;;5012764;28;20080;-44
2023/11/15 03:52:31;;;;;;;0.98;0.40;;;14.80;99.90;;;;;;5012051;28;20033;-45
2023/11/15 03:54:57;;;;;;;1.30;0.50;;;14.80;99.90;;;;;;5011688;28;20030;-44
2023/11/15 03:57:24;;;;;;;1.38;0.38;;;14.90;99.90;;;;;;5011425;28;20391;-46
2023/11/15 03:59:52;;;;;;;1.65;0.52;;;14.80;99.90;;;;;;5011704;28;20475;-43
2023/11/15 04:02:18;;;;;;;1.60;0.45;;;14.90;99.90;;;;;;5012776;28;20018;-44
2023/11/15 04:04:43;;;;;;;1.33;0.40;;;14.90;99.90;;;;;;5011628;28;20553;-46
2023/11/15 04:07:09;;;;;;;1.70;0.40;;;14.90;99.90;;;;;;5011877;28;20598;-46
2023/11/15 04:09:36;;;;;;;0.68;0.25;;;15.00;99.90;;;;;;5011712;28;20037;-45
2023/11/15 04:12:02;;;;;;;1.77;0.80;;;15.00;99.90;;;;;;5012585;28;20413;-46
2023/11/15 04:14:28;;;;;;;0.50;0.30;;;15.10;99.90;;;;;;5012534;28;20116;-46
2023/11/15 04:16:54;;;;;;;0.60;0.30;;;15.10;99.90;;;;;;5015116;28;20552;-44
2023/11/15 04:19:21;;;;;;;1.02;0.30;;;15.20;99.90;;;;;;5014902;28;20124;-44
2023/11/15 04:21:48;;;;;;;1.02;0.40;;;15.20;99.90;;;;;;5016459;28;20034;-46
2023/11/15 04:24:14;;;;;;;0.60;0.30;;;15.30;99.90;;;;;;5016137;28;20438;-46
2023/11/15 04:26:39;;;;;;;0.40;0.30;;;15.30;99.90;;;;;;5015072;28;20030;-43
2023/11/15 04:29:05;;;;;;;1.00;0.40;;;15.30;99.90;;;;;;5015031;28;20077;-45
2023/11/15 04:31:35;;;;;;;0.95;0.30;;;15.40;99.90;;;;;;5015633;28;20025;-45
2023/11/15 04:34:02;;;;;;;0.60;0.20;;;15.40;99.90;;;;;;5016447;28;20022;-45
2023/11/15 04:36:31;;;;;;;1.00;0.35;;;15.50;99.90;;;;;;5014928;28;20022;-44
2023/11/15 04:38:57;;;;;;;0.60;0.28;;;15.50;99.90;;;;;;5015004;28;20034;-46
2023/11/15 04:41:23;;;;;;;0.60;0.30;;;15.50;99.90;;;;;;5014885;28;20022;-45
2023/11/15 04:43:49;;;;;;;2.28;0.55;;;15.50;99.90;;;;;;5014558;28;20022;-43
2023/11/15 04:46:15;;;;;;;1.98;0.40;;;15.50;99.90;;;;;;5014626;28;20095;-45
2023/11/15 04:48:41;;;;;;;1.10;0.40;;;15.50;99.90;;;;;;5015209;28;20080;-43
2023/11/15 04:51:06;;;;;;;1.08;0.32;;;15.50;99.90;;;;;;5016816;28;20042;-45
2023/11/15 04:53:32;;;;;;;0.82;0.30;;;15.50;99.90;;;;;;5015125;28;20101;-45
2023/11/15 04:55:58;;;;;;;1.13;0.50;;;15.50;99.90;;;;;;5014464;28;20075;-44
2023/11/15 04:58:24;;;;;;;0.35;0.20;;;15.50;99.90;;;;;;5015660;28;20030;-45
2023/11/15 05:00:49;;;;;;;1.02;0.20;;;15.50;99.90;;;;;;5015663;28;20105;-45
2023/11/15 05:03:15;;;;;;;0.43;0.17;;;15.50;99.90;;;;;;5014356;28;20033;-44
2023/11/15 05:05:42;;;;;;;1.23;0.43;;;15.50;99.90;;;;;;5014486;28;20073;-43
2023/11/15 05:08:09;;;;;;;0.98;0.30;;;15.50;99.90;;;;;;5014570;28;20117;-45
2023/11/15 05:10:35;;;;;;;1.23;0.40;;;15.50;99.90;;;;;;5014237;28;20395;-45
2023/11/15 05:13:01;;;;;;;0.77;0.30;;;15.50;99.90;;;;;;5014921;28;20105;-46
2023/11/15 05:15:28;;;;;;;1.40;0.40;;;15.50;99.90;;;;;;5014175;28;20029;-45
2023/11/15 05:17:53;;;;;;;1.02;0.30;;;15.50;99.90;;;;;;5014755;28;20383;-44
2023/11/15 05:20:20;;;;;;;0.52;0.30;;;15.50;99.90;;;;;;5014371;28;20010;-42
2023/11/15 05:22:45;;;;;;;0.75;0.32;;;15.40;99.90;;;;;;5014551;28;20037;-46
2023/11/15 05:25:11;;;;;;;0.88;0.52;;;15.40;99.90;;;;;;5014617;28;20026;-43
2023/11/15 05:27:36;;;;;;;0.90;0.38;;;15.40;99.90;;;;;;5013125;28;20447;-43
2023/11/15 05:30:02;;;;;;;0.98;0.50;;;15.40;99.90;;;;;;5014305;28;20037;-44
2023/11/15 05:32:28;;;;;;;1.60;0.25;;;15.40;99.90;;;;;;5013864;28;20520;-45
2023/11/15 05:34:54;;;;;;;1.25;0.50;;;15.40;99.90;;;;;;5013752;28;20348;-44
2023/11/15 05:37:19;;;;;;;1.00;0.38;;;15.40;99.90;;;;;;5013666;28;20018;-45
2023/11/15 05:39:45;;;;;;;0.50;0.30;;;15.40;99.90;;;;;;5013708;28;20029;-45
2023/11/15 05:42:11;;;;;;;0.60;0.38;;;15.40;99.90;;;;;;5014487;28;20030;-44
2023/11/15 05:44:36;;;;;;;0.73;0.30;;;15.30;99.90;;;;;;5013503;28;20026;-43
2023/11/15 05:47:02;;;;;;;2.10;0.63;;;15.30;99.90;;;;;;5013408;28;20030;-43
2023/11/15 05:49:28;;;;;;;1.33;0.50;;;15.30;99.90;;;;;;5013913;28;20108;-45
2023/11/15 05:51:54;;;;;;;2.53;0.43;;;15.30;99.90;;;;;;5013409;28;20472;-44
2023/11/15 05:54:19;;;;;;;1.08;0.50;;;15.30;99.90;;;;;;5013421;28;20033;-44
2023/11/15 05:56:46;;;;;;;2.85;0.80;;;15.30;99.90;;;;;;5013961;28;20383;-44
2023/11/15 05:59:13;;;;;;;2.78;0.65;;;15.30;99.90;;;;;;5013265;28;20022;-46
2023/11/15 06:01:39;;;;;;;3.40;0.77;;;15.20;99.90;;;;;;5014045;28;20361;-45
2023/11/15 06:04:05;;;;;;;1.65;0.50;;;15.20;99.90;;;;;;5013773;28;20032;-43
2023/11/15 06:06:30;;;;;;;2.53;0.30;;;15.20;99.90;;;;;;5013097;28;20021;-45
2023/11/15 06:08:56;;;;;;;4.20;0.75;;;15.20;99.90;;;;;;5013981;28;20034;-45
2023/11/15 06:11:22;;;;;;;4.43;0.60;;;15.20;99.90;;;;;;5012930;28;20438;-45
2023/11/15 06:13:48;;;;;;;1.55;0.60;;;15.10;99.90;;;;;;5013368;28;20084;-44
2023/11/15 06:16:14;;;;;;;2.65;0.70;;;15.10;99.90;;;;;;5013825;28;20029;-43
2023/11/15 06:18:40;;;;;;;1.70;0.50;;;15.10;99.90;;;;;;5013029;28;20022;-44
2023/11/15 06:21:06;;;;;;;2.40;0.40;;;15.10;99.90;;;;;;5012931;28;20122;-44
2023/11/15 06:23:34;;;;;;;1.67;0.47;;;15.10;99.90;;;;;;5013148;28;20446;-44
2023/11/15 06:26:00;;;;;;;1.48;0.60;;;15.10;99.90;;;;;;5012718;28;20021;-43
2023/11/15 06:28:25;;;;;;;2.15;0.70;;;15.10;99.90;;;;;;5013819;28;20280;-45
2023/11/15 06:30:51;;;;;;;1.77;0.50;;;15.10;99.90;;;;;;5012703;28;20097;-45
2023/11/15 06:33:17;;;;;;;2.00;0.57;;;15.10;99.90;;;;;;5013149;28;20033;-44
2023/11/15 06:35:44;;;;;;;1.13;0.50;;;15.10;99.90;;;;;;5012946;28;20026;-45
2023/11/15 06:38:10;;;;;;;3.40;0.43;;;15.10;99.90;;;;;;5012179;28;20033;-43
2023/11/15 06:40:35;;;;;;;1.83;0.63;;;15.20;99.90;;;;;;5012957;28;20477;-45
2023/11/15 06:43:01;;;;;;;1.05;0.30;;;15.20;99.90;;;;;;5012552;28;20037;-46
2023/11/15 06:45:28;;;;;;;2.20;0.50;;;15.20;99.90;;;;;;5012771;28;20068;-45
2023/11/15 06:47:54;;;;;;;1.00;0.50;;;15.20;99.90;;;;;;5013159;28;20025;-43
2023/11/15 06:50:23;;;;;;;1.38;0.65;;;15.30;99.90;;;;;;5012416;28;20022;-46
2023/11/15 06:52:49;;;;;;;0.63;0.30;;;15.30;99.90;;;;;;5012414;28;20054;-44
2023/11/15 06:55:15;;;;;;;1.17;0.47;;;15.30;99.90;;;;;;5011984;28;20412;-44
2023/11/15 06:57:43;;;;;;;0.95;0.35;;;15.30;99.90;;;;;;5012097;28;20022;-45
2023/11/15 07:00:11;;;;;;;1.52;0.50;;;15.40;99.90;;;;;;5012313;28;20467;-44
2023/11/15 07:02:36;;;;;;;2.53;0.60;;;15.40;99.90;;;;;;5012326;28;20048;-46
2023/11/15 07:05:03;;;;;;;1.73;0.60;;;15.40;99.90;;;;;;5012754;28;20034;-45
2023/11/15 07:07:30;;;;;;;0.98;0.40;;;15.40;99.90;;;;;;5010605;28;20026;-44
2023/11/15 07:09:55;;;;;;;1.75;0.50;;;15.50;99.90;;;;;;5011953;28;20499;-43
2023/11/15 07:12:23;;;;;;;2.30;0.50;;;15.50;99.90;;;;;;5010453;28;20072;-43
2023/11/15 07:14:51;;;;;;;2.00;0.60;;;15.50;99.90;;;;;;5011827;28;20430;-45
2023/11/15 07:17:19;;;;;;;1.27;0.40;;;15.50;99.90;;;;;;5011802;28;20018;-46
2023/11/15 07:19:48;;;;;;;1.05;0.35;;;15.60;99.90;;;;;;5011742;28;20050;-45
2023/11/15 07:22:14;;;;;;;0.95;0.40;;;15.60;99.90;;;;;;5012352;28;20060;-43
2023/11/15 07:24:39;;;;;;;1.42;0.32;;;15.70;99.90;;;;;;5012216;28;20018;-44
2023/11/15 07:27:09;;;;;;;3.47;0.52;;;15.70;99.90;;;;;;5012713;28;20048;-44
2023/11/15 07:29:35;;;;;;;3.95;0.60;;;15.70;99.90;;;;;;5012116;28;20034;-46
2023/11/15 07:32:03;;;;;;;0.80;0.30;;;15.80;99.90;;;;;;5011612;28;20381;-44
2023/11/15 07:34:31;;;;;;;0.88;0.40;;;15.80;99.90;;;;;;5011983;28;20431;-43
2023/11/15 07:36:57;;;;;;;1.55;0.60;;;15.80;99.90;;;;;;5011826;28;20041;-46
2023/11/15 07:39:24;;;;;;;1.58;0.52;;;15.90;99.90;;;;;;5012708;28;20080;-44
2023/11/15 07:41:51;;;;;;;1.77;0.45;;;15.90;99.90;;;;;;5012286;28;20034;-44
2023/11/15 07:44:17;;;;;;;0.80;0.30;;;15.90;99.90;;;;;;5012546;28;20498;-45
2023/11/15 07:46:49;;;;;;;1.88;0.50;;;16.00;99.90;;;;;;5011561;28;20499;-45
2023/11/15 07:49:18;;;;;;;2.58;0.60;;;16.00;99.90;;;;;;5011974;28;20072;-46
2023/11/15 07:51:47;;;;;;;3.28;0.70;;;16.10;99.90;;;;;;5012126;28;20022;-45
2023/11/15 07:54:14;;;;;;;2.75;0.90;;;16.10;99.90;;;;;;5011713;28;20483;-46
2023/11/15 07:56:40;;;;;;;2.92;0.65;;;16.10;99.90;;;;;;5012121;28;20030;-44
2023/11/15 07:59:06;;;;;;;2.28;0.90;;;16.10;99.90;;;;;;5011811;28;20026;-44
2023/11/15 08:01:31;;;;;;;1.70;0.60;;;16.20;99.90;;;;;;5011515;28;20790;-46
2023/11/15 08:03:57;;;;;;;5.70;0.90;;;16.20;99.90;;;;;;5011774;28;20109;-46
2023/11/15 08:06:23;;;;;;;2.00;0.60;;;16.20;99.90;;;;;;5011526;28;20073;-45
2023/11/15 08:08:48;;;;;;;3.33;0.95;;;16.30;99.90;;;;;;5013134;28;20030;-45
2023/11/15 08:11:14;;;;;;;1.98;0.80;;;16.30;99.90;;;;;;5011562;28;20040;-45
2023/11/15 08:13:41;;;;;;;2.72;0.68;;;16.30;99.90;;;;;;5011086;28;20429;-44
2023/11/15 08:16:12;;;;;;;3.30;0.82;;;16.30;99.90;;;;;;5011473;28;20518;-46
2023/11/15 08:18:38;;;;;;;3.58;0.88;;;16.40;99.90;;;;;;5011696;28;20049;-44
2023/11/15 08:21:05;;;;;;;2.85;0.95;;;16.40;99.90;;;;;;5011327;28;20022;-44
2023/11/15 08:23:31;;;;;;;1.63;0.70;;;16.50;99.90;;;;;;5011729;28;20472;-45
2023/11/15 08:26:02;;;;;;;1.92;0.77;;;16.50;99.90;;;;;;5012171;28;20034;-45
2023/11/15 08:28:30;;;;;;;1.60;0.80;;;16.60;99.90;;;;;;5043570;28;20123;-47
2023/11/15 08:30:56;;;;;;;1.83;0.60;;;16.60;99.90;;;;;;5011243;28;20484;-46
2023/11/15 08:33:22;;;;;;;3.40;0.75;;;16.60;99.90;;;;;;5011997;28;20036;-46
2023/11/15 08:35:47;;;;;;;2.65;0.60;;;16.60;99.90;;;;;;5011108;28;20057;-46
2023/11/15 08:38:14;;;;;;;1.42;0.50;;;16.70;99.90;;;;;;5011204;28;20041;-44
2023/11/15 08:40:39;;;;;;;1.67;0.47;;;16.70;99.90;;;;;;5011704;28;20160;-46
2023/11/15 08:43:07;;;;;;;1.88;0.68;;;16.80;99.90;;;;;;5011759;28;20097;-45
2023/11/15 08:45:33;;;;;;;1.42;0.68;;;16.80;99.90;;;;;;5012019;28;20387;-45
2023/11/15 08:48:00;;;;;;;1.65;0.73;;;16.80;99.90;;;;;;5010926;28;20021;-46
2023/11/15 08:50:27;;;;;;;2.05;0.70;;;16.90;99.90;;;;;;5011713;28;20034;-43
2023/11/15 08:52:54;;;;;;;4.00;0.73;;;16.90;99.90;;;;;;5011479;28;20104;-43
2023/11/15 08:55:20;;;;;;;2.15;0.60;;;16.90;99.90;;;;;;5012352;28;20036;-46
2023/11/15 08:57:45;;;;;;;1.35;0.80;;;16.90;99.90;;;;;;5011006;28;20026;-46
2023/11/15 09:00:15;;;;;;;2.47;0.80;;;16.90;99.90;;;;;;5012310;28;20561;-42
2023/11/15 09:02:46;;;;;;;1.80;0.60;;;17.00;99.90;;;;;;5015242;28;20021;-46
2023/11/15 09:05:14;;;;;;;3.30;0.80;;;17.00;99.90;;;;;;5014920;28;20080;-45
2023/11/15 09:07:40;;;;;;;2.05;0.80;;;17.00;99.90;;;;;;5014870;28;20030;-45
2023/11/15 09:10:11;;;;;;;2.35;0.70;;;17.00;99.90;;;;;;5015996;28;20022;-44
2023/11/15 09:12:37;;;;;;;2.38;1.00;;;17.10;99.90;;;;;;5014464;28;20075;-46
2023/11/15 09:15:11;;;;;;;2.35;1.15;;;17.10;99.90;;;;;;5014128;28;20026;-46
2023/11/15 09:17:45;;;;;;;4.28;0.88;;;17.10;99.90;;;;;;5014707;28;20046;-44
2023/11/15 09:20:20;;;;;;;2.03;0.80;;;17.20;99.90;;;;;;5014213;28;20033;-44
2023/11/15 09:22:49;;;;;;;1.77;0.80;;;17.20;99.90;;;;;;5015045;28;20022;-46
2023/11/15 09:25:23;;;;;;;2.00;0.60;;;17.30;99.90;;;;;;5014436;28;20026;-45
2023/11/15 09:27:57;;;;;;;1.63;0.80;;;17.40;99.90;;;;;;5015174;28;20551;-46
2023/11/15 09:30:26;;;;;;;1.35;0.60;;;17.40;99.90;;;;;;5014973;28;20022;-46
2023/11/15 09:32:53;;;;;;;1.48;0.60;;;17.50;99.90;;;;;;5014662;28;20034;-45
2023/11/15 09:35:27;;;;;;;2.00;0.60;;;17.60;99.90;;;;;;5015040;28;20057;-44
2023/11/15 09:37:54;;;;;;;1.52;0.60;;;17.60;99.90;;;;;;5013916;28;20121;-45
2023/11/15 09:40:21;;;;;;;1.77;0.70;;;17.70;99.90;;;;;;5014007;28;20037;-45
2023/11/15 09:42:51;;;;;;;1.00;0.60;;;17.70;99.90;;;;;;5014060;28;20022;-44
2023/11/15 09:45:23;;;;;;;1.30;0.60;;;17.70;99.90;;;;;;5013482;28;20136;-46
2023/11/15 09:47:52;;;;;;;1.40;0.70;;;17.80;99.90;;;;;;5013570;28;20088;-46
2023/11/15 09:50:23;;;;;;;1.27;0.60;;;17.80;99.90;;;;;;5014897;28;20030;-44
2023/11/15 09:52:51;;;;;;;2.70;0.70;;;17.90;99.90;;;;;;5014515;28;20112;-43
2023/11/15 09:55:24;;;;;;;1.25;0.60;;;17.90;99.90;;;;;;5013558;28;20041;-46
2023/11/15 09:57:51;;;;;;;1.23;0.50;;;18.00;99.90;;;;;;5014583;28;20057;-44
2023/11/15 10:00:20;;;;;;;1.60;0.73;;;18.00;99.90;;;;;;5013294;28;20029;-45
2023/11/15 10:02:51;;;;;;;1.73;0.63;;;18.00;99.90;;;;;;5013372;28;20052;-46
2023/11/15 10:05:19;;;;;;;3.13;0.80;;;18.10;99.90;;;;;;5013475;28;20065;-43
2023/11/15 10:07:52;;;;;;;2.30;0.80;;;18.10;99.90;;;;;;5013265;28;20029;-46
2023/11/15 10:10:24;;;;;;;1.83;0.65;;;18.20;99.90;;;;;;5013533;28;20403;-46
2023/11/15 10:12:55;;;;;;;1.73;0.50;;;18.20;99.90;;;;;;5013171;28;20184;-45
2023/11/15 10:15:33;;;;;;;0.95;0.60;;;18.20;99.90;;;;;;5013136;28;20083;-45
2023/11/15 10:18:00;;;;;;;1.98;0.65;;;18.30;99.90;;;;;;5012917;28;20022;-45
2023/11/15 10:20:26;;;;;;;2.15;0.60;;;18.40;99.90;;;;;;5012907;28;20067;-45
2023/11/15 10:22:55;;;;;;;2.13;0.70;;;18.40;99.90;;;;;;5013437;28;20497;-43
2023/11/15 10:25:25;;;;;;;1.50;0.43;;;18.40;99.90;;;;;;5013240;28;20022;-44
2023/11/15 10:28:00;;;;;;;1.23;0.40;;;18.50;99.90;;;;;;5013249;28;20022;-41
2023/11/15 10:30:27;;;;;;;1.00;0.30;;;18.60;99.90;;;;;;5014135;28;20391;-46
2023/11/15 10:33:14;;;;;;;0.77;0.30;;;18.70;99.90;;;;;;5013160;28;20064;-46
2023/11/15 10:35:43;;;;;;;1.30;0.50;;;18.80;99.90;;;;;;5012986;28;20029;-43
2023/11/15 10:38:17;;;;;;;1.15;0.47;;;18.80;99.90;;;;;;5012800;28;20030;-46
2023/11/15 10:40:46;;;;;;;1.25;0.47;;;18.90;99.90;;;;;;5012942;28;20022;-45
2023/11/15 10:43:15;;;;;;;1.05;0.40;;;19.00;99.90;;;;;;5013517;28;20022;-46
2023/11/15 10:45:43;;;;;;;1.33;0.50;;;19.10;99.90;;;;;;5012700;28;20072;-43
2023/11/15 10:48:17;;;;;;;1.27;0.35;;;19.20;99.90;;;;;;5012537;28;20040;-46
2023/11/15 10:50:45;;;;;;;0.98;0.40;;;19.30;99.90;;;;;;5012413;28;20357;-46
2023/11/15 10:53:11;;;;;;;1.80;0.43;;;19.40;99.90;;;;;;5012528;28;20033;-44
2023/11/15 10:55:40;;;;;;;1.50;0.40;;;19.50;99.90;;;;;;5012222;28;20115;-43
2023/11/15 10:58:11;;;;;;;1.15;0.43;;;19.60;99.90;;;;;;5012876;28;20028;-45
2023/11/15 11:00:40;;;;;;;1.15;0.40;;;19.80;99.90;;;;;;5012390;28;20022;-45
2023/11/15 11:03:07;;;;;;;0.85;0.32;;;19.90;99.90;;;;;;5012250;28;20018;-46
2023/11/15 11:05:44;;;;;;;0.77;0.40;;;20.00;99.90;;;;;;5012604;28;20037;-41
2023/11/15 11:08:44;;;;;;;0.98;0.40;;;20.10;99.90;;;;;;5012006;28;20095;-46
2023/11/15 11:11:09;;;;;;;0.88;0.30;;;20.30;99.90;;;;;;5012166;28;20034;-46
2023/11/15 11:13:36;;;;;;;1.75;0.40;;;20.30;99.90;;;;;;5012086;28;20030;-43
2023/11/15 11:16:29;;;;;;;0.50;0.25;;;20.40;99.90;;;;;;5011912;28;20030;-43
2023/11/15 11:19:16;;;;;;;1.00;0.30;;;20.50;99.90;;;;;;5011967;28;20029;-44
2023/11/15 11:22:07;;;;;;;0.88;0.30;;;20.60;99.90;;;;;;5012118;28;20024;-46
2023/11/15 11:24:32;;;;;;;1.48;0.30;;;20.70;99.90;;;;;;5011732;28;20482;-43
2023/11/15 11:27:16;;;;;;;1.02;0.40;;;20.70;99.90;;;;;;5012290;28;20030;-43
2023/11/15 11:30:05;;;;;;;0.88;0.40;;;20.90;99.90;;;;;;5011675;28;20026;-43
2023/11/15 11:32:31;;;;;;;0.50;0.30;;;21.00;99.90;;;;;;5011879;28;20487;-45
2023/11/15 11:35:13;;;;;;;0.80;0.40;;;21.10;99.90;;;;;;5011633;28;20026;-46
2023/11/15 11:37:53;;;;;;;1.10;0.35;;;21.20;99.90;;;;;;5011407;28;20014;-44
2023/11/15 11:40:32;;;;;;;1.17;0.40;;;21.30;99.90;;;;;;5011600;28;20032;-45
2023/11/15 11:43:26;;;;;;;0.60;0.35;;;21.40;99.90;;;;;;5011941;28;20542;-42
2023/11/15 11:45:53;;;;;;;1.50;0.30;;;21.40;99.90;;;;;;5011705;28;20160;-46
2023/11/15 11:48:26;;;;;;;0.40;0.30;;;21.50;99.90;;;;;;5011431;28;20077;-44
2023/11/15 11:50:58;;;;;;;0.70;0.40;;;21.60;99.90;;;;;;5011924;28;20022;-43
2023/11/15 11:53:24;;;;;;;1.42;0.50;;;21.70;99.90;;;;;;5011702;28;20026;-43
2023/11/15 11:55:55;;;;;;;1.33;0.30;;;21.70;99.90;;;;;;5011845;28;20491;-43
2023/11/15 11:58:28;;;;;;;0.93;0.22;;;21.80;99.90;;;;;;5011499;28;20208;-45
2023/11/15 12:01:02;;;;;;;0.77;0.30;;;21.90;99.90;;;;;;5011796;28;20026;-46
2023/11/15 12:03:30;;;;;;;0.80;0.30;;;22.00;99.90;;;;;;5011671;28;20018;-45
2023/11/15 12:06:07;;;;;;;0.50;0.30;;;22.10;99.90;;;;;;5011478;28;20026;-44
2023/11/15 12:08:34;;;;;;;1.92;0.20;;;22.20;99.90;;;;;;5011421;28;20025;-43
2023/11/15 12:10:59;;;;;;;0.93;0.28;;;22.20;99.90;;;;;;5011347;28;20105;-44
2023/11/15 12:13:25;;;;;;;0.82;0.35;;;22.30;99.90;;;;;;5011673;28;20523;-45
2023/11/15 12:15:51;;;;;;;1.05;0.32;;;22.30;99.90;;;;;;5011139;28;20430;-44
2023/11/15 12:18:17;;;;;;;0.50;0.20;;;22.40;99.90;;;;;;5011260;28;20030;-44
2023/11/15 12:20:43;;;;;;;0.70;0.40;;;22.40;99.90;;;;;;5011757;28;20022;-45
2023/11/15 12:23:17;;;;;;;0.30;0.20;;;22.40;99.90;;;;;;5011329;28;20018;-45
2023/11/15 12:25:52;;;;;;;0.40;0.20;;;22.40;99.90;;;;;;5011130;28;20400;-44
2023/11/15 12:28:31;;;;;;;0.68;0.20;;;22.50;99.90;;;;;;5011361;28;20456;-46
2023/11/15 12:30:58;;;;;;;0.85;0.30;;;22.50;99.90;;;;;;5011540;28;20365;-46
2023/11/15 12:33:26;;;;;;;1.27;0.32;;;22.50;99.90;;;;;;5011267;28;20112;-41
2023/11/15 12:35:54;;;;;;;0.50;0.20;;;22.60;99.90;;;;;;5012820;28;20111;-44
2023/11/15 12:38:20;;;;;;;0.50;0.30;;;22.60;99.90;;;;;;5014835;28;20120;-43
2023/11/15 12:40:46;;;;;;;0.85;0.30;;;22.60;99.90;;;;;;5015119;28;20113;-45
2023/11/15 12:43:13;;;;;;;0.75;0.20;;;22.70;99.90;;;;;;5014888;28;20404;-46
2023/11/15 12:45:38;;;;;;;0.73;0.20;;;22.70;99.90;;;;;;5015190;28;20030;-44
2023/11/15 12:48:08;;;;;;;0.47;0.20;;;22.70;99.90;;;;;;5014644;28;20030;-44
2023/11/15 12:50:40;;;;;;;0.60;0.30;;;22.70;99.90;;;;;;5014570;28;20029;-43